createdAt,value
2023-03-18T00:00:46.436Z,99.90
2023-03-18T00:03:14.037Z,99.90
2023-03-18T00:05:42.084Z,99.90
2023-03-18T00:08:09.604Z,99.90
2023-03-18T00:10:36.974Z,99.90
2023-03-18T00:13:07.257Z,99.90
2023-03-18T00:15:34.697Z,99.90
2023-03-18T00:18:02.077Z,99.90
2023-03-18T00:20:38.481Z,99.90
2023-03-18T00:23:08.585Z,99.90
2023-03-18T00:25:36.831Z,99.90
2023-03-18T00:28:05.170Z,99.90
2023-03-18T00:30:33.083Z,99.90
2023-03-18T00:33:00.542Z,99.90
2023-03-18T00:35:28.200Z,99.90
2023-03-18T00:37:55.627Z,99.90
2023-03-18T00:40:30.135Z,99.90
2023-03-18T00:43:07.716Z,99.90
2023-03-18T00:45:38.798Z,99.90
2023-03-18T00:48:07.577Z,99.90
2023-03-18T00:50:36.111Z,99.90
2023-03-18T00:53:03.895Z,99.90
2023-03-18T00:55:31.318Z,99.90
2023-03-18T00:57:58.785Z,99.90
2023-03-18T01:00:26.348Z,99.90
2023-03-18T01:02:54.235Z,99.90
2023-03-18T01:05:22.992Z,99.90
2023-03-18T01:07:50.377Z,99.90
2023-03-18T01:10:17.724Z,99.90
2023-03-18T01:12:47.179Z,99.90
2023-03-18T01:15:17.641Z,99.90
2023-03-18T01:17:46.022Z,99.90
2023-03-18T01:20:17.056Z,99.90
2023-03-18T01:22:45.471Z,99.90
2023-03-18T01:25:15.797Z,99.90
2023-03-18T01:27:45.369Z,99.90
2023-03-18T01:30:13.468Z,99.90
2023-03-18T01:32:43.803Z,99.90
2023-03-18T01:35:12.416Z,99.90
2023-03-18T01:37:46.736Z,99.90
2023-03-18T01:40:14.631Z,99.90
2023-03-18T01:42:42.861Z,99.90
2023-03-18T01:45:19.592Z,99.90
2023-03-18T01:47:49.832Z,99.90
2023-03-18T01:50:30.965Z,99.90
2023-03-18T01:53:10.282Z,99.90
2023-03-18T01:55:38.158Z,99.90
2023-03-18T01:58:21.309Z,99.90
2023-03-18T02:00:55.453Z,99.90
2023-03-18T02:03:22.864Z,99.90
2023-03-18T02:05:50.396Z,99.90
2023-03-18T02:08:18.375Z,99.90
2023-03-18T02:10:47.121Z,99.90
2023-03-18T02:13:15.100Z,99.90
2023-03-18T02:15:56.670Z,99.90
2023-03-18T02:18:28.420Z,99.90
2023-03-18T02:21:20.884Z,99.90
2023-03-18T02:24:27.205Z,99.90
2023-03-18T02:27:15.942Z,99.90
2023-03-18T02:29:43.992Z,99.90
2023-03-18T02:32:16.609Z,99.90
2023-03-18T02:34:44.047Z,99.90
2023-03-18T02:37:11.707Z,99.90
2023-03-18T02:39:41.663Z,99.90
2023-03-18T02:42:12.823Z,99.90
2023-03-18T02:44:45.112Z,99.90
2023-03-18T02:47:38.327Z,99.90
2023-03-18T02:50:05.928Z,99.90
2023-03-18T02:52:33.987Z,99.90
2023-03-18T02:55:01.781Z,99.90
2023-03-18T02:57:30.439Z,99.90
2023-03-18T02:59:58.425Z,99.90
2023-03-18T03:02:26.329Z,99.90
2023-03-18T03:04:53.979Z,99.90
2023-03-18T03:07:21.399Z,99.90
2023-03-18T03:09:53.030Z,99.90
2023-03-18T03:12:21.158Z,99.90
2023-03-18T03:14:52.695Z,99.90
2023-03-18T03:17:20.651Z,99.90
2023-03-18T03:19:48.021Z,99.90
2023-03-18T03:22:17.425Z,99.90
2023-03-18T03:24:47.004Z,99.90
2023-03-18T03:27:14.835Z,99.90
2023-03-18T03:29:42.327Z,99.90
2023-03-18T03:32:10.007Z,99.90
2023-03-18T03:34:37.541Z,99.90
2023-03-18T03:37:05.825Z,99.90
2023-03-18T03:39:33.913Z,99.90
2023-03-18T03:42:01.249Z,99.90
2023-03-18T03:44:28.593Z,99.90
2023-03-18T03:46:56.005Z,99.90
2023-03-18T03:49:24.220Z,99.90
2023-03-18T03:51:51.511Z,99.90
2023-03-18T03:54:19.992Z,99.90
2023-03-18T03:56:47.931Z,99.90
2023-03-18T03:59:15.792Z,99.90
2023-03-18T04:02:23.687Z,99.90
2023-03-18T04:04:51.673Z,99.90
2023-03-18T04:07:27.084Z,99.90
2023-03-18T04:09:55.980Z,99.90
2023-03-18T04:12:23.362Z,99.90
2023-03-18T04:14:56.520Z,99.90
2023-03-18T04:17:23.889Z,99.90
2023-03-18T04:19:51.193Z,99.90
2023-03-18T04:22:18.860Z,99.90
2023-03-18T04:24:46.316Z,99.90
2023-03-18T04:27:13.679Z,99.90
2023-03-18T04:29:41.093Z,99.90
2023-03-18T04:32:08.458Z,99.90
2023-03-18T04:34:38.521Z,99.90
2023-03-18T04:37:06.780Z,99.90
2023-03-18T04:39:36.143Z,99.90
2023-03-18T04:42:03.658Z,99.90
2023-03-18T04:44:31.752Z,99.90
2023-03-18T04:47:00.851Z,99.90
2023-03-18T04:49:28.332Z,99.90
2023-03-18T04:51:56.322Z,99.90
2023-03-18T04:54:30.058Z,99.90
2023-03-18T04:57:00.848Z,99.90
2023-03-18T04:59:30.339Z,99.90
2023-03-18T05:01:59.761Z,99.90
2023-03-18T05:04:27.512Z,99.90
2023-03-18T05:06:54.922Z,99.90
2023-03-18T05:09:29.147Z,99.90
2023-03-18T05:11:56.813Z,99.90
2023-03-18T05:14:32.072Z,99.90
2023-03-18T05:17:01.765Z,99.90
2023-03-18T05:19:30.622Z,99.90
2023-03-18T05:22:06.619Z,99.90
2023-03-18T05:24:34.857Z,99.90
2023-03-18T05:27:03.576Z,99.90
2023-03-18T05:29:38.466Z,99.90
2023-03-18T05:32:20.220Z,99.90
2023-03-18T05:34:52.755Z,99.90
2023-03-18T05:37:20.385Z,99.90
2023-03-18T05:39:57.797Z,99.90
2023-03-18T05:42:25.913Z,99.90
2023-03-18T05:44:54.658Z,99.90
2023-03-18T05:47:23.884Z,99.90
2023-03-18T05:50:10.681Z,99.90
2023-03-18T05:52:39.105Z,99.90
2023-03-18T05:55:13.935Z,99.90
2023-03-18T05:57:43.913Z,99.90
2023-03-18T06:00:13.758Z,99.90
2023-03-18T06:02:44.876Z,99.90
2023-03-18T06:05:13.781Z,99.90
2023-03-18T06:07:41.114Z,99.90
2023-03-18T06:10:09.145Z,99.90
2023-03-18T06:12:36.470Z,99.90
2023-03-18T06:15:06.479Z,99.90
2023-03-18T06:17:34.122Z,99.90
2023-03-18T06:20:01.403Z,99.90
2023-03-18T06:22:28.738Z,99.90
2023-03-18T06:24:56.503Z,99.90
2023-03-18T06:27:23.951Z,99.90
2023-03-18T06:29:56.036Z,99.90
2023-03-18T06:32:23.707Z,99.90
2023-03-18T06:34:52.519Z,99.90
2023-03-18T06:37:20.998Z,99.90
2023-03-18T06:39:50.017Z,99.90
2023-03-18T06:42:18.125Z,99.80
2023-03-18T06:45:17.892Z,99.80
2023-03-18T06:47:55.252Z,99.60
2023-03-18T06:50:24.327Z,99.50
2023-03-18T06:52:51.722Z,99.50
2023-03-18T06:55:26.104Z,99.40
2023-03-18T06:57:53.626Z,99.30
2023-03-18T07:00:25.983Z,99.60
2023-03-18T07:02:54.202Z,99.20
2023-03-18T07:05:26.487Z,99.00
2023-03-18T07:07:54.514Z,99.10
2023-03-18T07:10:23.940Z,99.00
2023-03-18T07:12:52.979Z,98.90
2023-03-18T07:15:21.638Z,98.90
2023-03-18T07:17:51.010Z,98.90
2023-03-18T07:20:19.550Z,98.80
2023-03-18T07:22:46.933Z,98.70
2023-03-18T07:25:14.362Z,98.60
2023-03-18T07:27:42.428Z,98.50
2023-03-18T07:30:10.366Z,98.20
2023-03-18T07:32:38.550Z,98.00
2023-03-18T07:35:06.600Z,97.60
2023-03-18T07:37:34.349Z,97.60
2023-03-18T07:40:01.870Z,97.70
2023-03-18T07:42:29.170Z,97.60
2023-03-18T07:44:58.078Z,97.20
2023-03-18T07:47:25.369Z,97.10
2023-03-18T07:49:52.845Z,96.90
2023-03-18T07:52:20.238Z,96.90
2023-03-18T07:54:47.573Z,96.90
2023-03-18T07:57:14.902Z,96.40
2023-03-18T07:59:42.260Z,96.00
2023-03-18T08:02:13.914Z,96.00
2023-03-18T08:04:42.814Z,95.80
2023-03-18T08:07:10.539Z,95.80
2023-03-18T08:09:38.377Z,95.40
2023-03-18T08:12:06.022Z,95.20
2023-03-18T08:14:33.535Z,95.20
2023-03-18T08:17:01.619Z,94.90
2023-03-18T08:19:29.449Z,94.80
2023-03-18T08:21:57.541Z,94.60
2023-03-18T08:24:25.364Z,94.20
2023-03-18T08:26:52.690Z,93.90
2023-03-18T08:29:19.961Z,93.60
2023-03-18T08:31:47.419Z,93.20
2023-03-18T08:34:15.430Z,93.10
2023-03-18T08:36:42.906Z,92.80
2023-03-18T08:39:11.192Z,92.50
2023-03-18T08:41:38.667Z,92.20
2023-03-18T08:44:08.409Z,91.80
2023-03-18T08:46:35.896Z,91.60
2023-03-18T08:49:03.595Z,91.70
2023-03-18T08:51:31.039Z,91.40
2023-03-18T08:53:58.653Z,91.00
2023-03-18T08:56:26.098Z,90.80
2023-03-18T08:58:53.611Z,90.30
2023-03-18T09:01:22.375Z,90.00
2023-03-18T09:03:50.661Z,88.00
2023-03-18T09:06:18.328Z,87.10
2023-03-18T09:08:45.656Z,86.20
2023-03-18T09:11:13.792Z,86.30
2023-03-18T09:13:41.173Z,86.20
2023-03-18T09:16:08.572Z,85.60
2023-03-18T09:18:35.907Z,84.70
2023-03-18T09:21:03.486Z,83.60
2023-03-18T09:23:31.835Z,81.90
2023-03-18T09:25:59.781Z,81.40
2023-03-18T09:28:27.354Z,80.90
2023-03-18T09:30:55.531Z,78.60
2023-03-18T09:33:22.962Z,76.50
2023-03-18T09:35:50.789Z,75.70
2023-03-18T09:38:19.829Z,75.40
2023-03-18T09:40:52.770Z,74.50
2023-03-18T09:43:23.213Z,74.10
2023-03-18T09:46:09.623Z,73.70
2023-03-18T09:48:42.029Z,72.80
2023-03-18T09:51:19.417Z,72.40
2023-03-18T09:53:57.596Z,71.60
2023-03-18T09:56:27.104Z,71.60
2023-03-18T09:59:12.506Z,71.30
2023-03-18T10:01:39.931Z,70.70
2023-03-18T10:04:27.843Z,71.50
2023-03-18T10:07:00.102Z,69.30
2023-03-18T10:09:31.479Z,68.50
2023-03-18T10:12:27.329Z,68.20
2023-03-18T10:15:06.973Z,68.40
2023-03-18T10:17:42.896Z,66.00
2023-03-18T10:20:35.957Z,65.10
2023-03-18T10:23:39.284Z,64.30
2023-03-18T10:26:18.032Z,64.60
2023-03-18T10:29:04.101Z,62.50
2023-03-18T10:31:37.250Z,61.30
2023-03-18T10:34:13.891Z,61.20
2023-03-18T10:37:00.036Z,59.80
2023-03-18T10:39:27.673Z,61.00
2023-03-18T10:41:55.358Z,60.70
2023-03-18T10:44:30.300Z,58.90
2023-03-18T10:47:32.973Z,58.10
2023-03-18T10:50:06.868Z,58.20
2023-03-18T10:52:35.221Z,58.90
2023-03-18T10:55:03.069Z,57.70
2023-03-18T10:57:30.391Z,57.80
2023-03-18T10:59:57.687Z,58.10
2023-03-18T11:02:33.047Z,57.90
2023-03-18T11:05:06.981Z,56.60
2023-03-18T11:07:34.377Z,55.90
2023-03-18T11:10:35.588Z,55.70
2023-03-18T11:13:03.456Z,55.80
2023-03-18T11:15:39.728Z,56.90
2023-03-18T11:18:07.127Z,56.00
2023-03-18T11:20:44.196Z,55.80
2023-03-18T11:23:48.959Z,55.20
2023-03-18T11:26:26.942Z,53.80
2023-03-18T11:28:58.764Z,54.20
2023-03-18T11:31:27.930Z,54.50
2023-03-18T11:33:59.125Z,54.00
2023-03-18T11:36:27.929Z,55.50
2023-03-18T11:39:01.564Z,56.40
2023-03-18T11:41:30.126Z,56.30
2023-03-18T11:44:07.792Z,55.10
2023-03-18T11:46:45.953Z,55.30
2023-03-18T11:49:14.538Z,55.60
2023-03-18T11:52:06.650Z,55.30
2023-03-18T11:54:46.728Z,54.80
2023-03-18T11:57:32.920Z,54.40
2023-03-18T12:00:17.748Z,55.10
2023-03-18T12:02:47.814Z,54.40
2023-03-18T12:05:34.636Z,55.60
2023-03-18T12:08:23.253Z,56.00
2023-03-18T12:11:44.663Z,56.90
2023-03-18T12:14:18.458Z,54.40
2023-03-18T12:16:50.559Z,52.40
2023-03-18T12:19:37.476Z,51.10
2023-03-18T12:22:14.025Z,50.60
2023-03-18T12:25:05.388Z,50.30
2023-03-18T12:27:39.151Z,49.70
2023-03-18T12:30:25.292Z,48.70
2023-03-18T12:32:58.923Z,48.80
2023-03-18T12:35:48.161Z,50.10
2023-03-18T12:38:38.474Z,50.20
2023-03-18T12:41:14.776Z,51.00
2023-03-18T12:44:20.509Z,51.80
2023-03-18T12:46:52.332Z,50.60
2023-03-18T12:49:33.081Z,51.00
2023-03-18T12:52:06.314Z,50.30
2023-03-18T12:55:06.904Z,51.10
2023-03-18T12:57:48.713Z,50.30
2023-03-18T13:00:31.342Z,50.20
2023-03-18T13:03:09.131Z,50.20
2023-03-18T13:05:52.430Z,49.00
2023-03-18T13:08:38.272Z,49.50
2023-03-18T13:11:12.116Z,50.20
2023-03-18T13:13:40.037Z,50.80
2023-03-18T13:16:07.521Z,50.40
2023-03-18T13:18:45.428Z,50.30
2023-03-18T13:21:18.263Z,51.30
2023-03-18T13:24:12.925Z,49.30
2023-03-18T13:27:08.850Z,49.10
2023-03-18T13:29:57.782Z,48.70
2023-03-18T13:32:41.732Z,49.00
2023-03-18T13:35:46.445Z,49.10
2023-03-18T13:38:32.523Z,50.30
2023-03-18T13:41:32.624Z,48.90
2023-03-18T13:44:03.680Z,48.20
2023-03-18T13:46:34.903Z,49.30
2023-03-18T13:49:12.533Z,49.70
2023-03-18T13:51:39.951Z,50.50
2023-03-18T13:54:14.766Z,49.60
2023-03-18T13:56:42.844Z,49.30
2023-03-18T13:59:38.133Z,49.20
2023-03-18T14:02:44.015Z,49.10
2023-03-18T14:05:47.197Z,50.50
2023-03-18T14:08:41.870Z,51.30
2023-03-18T14:11:22.962Z,50.40
2023-03-18T14:13:56.866Z,49.80
2023-03-18T14:16:45.522Z,49.40
2023-03-18T14:19:28.487Z,49.10
2023-03-18T14:22:07.005Z,49.20
2023-03-18T14:24:34.310Z,50.10
2023-03-18T14:27:04.927Z,49.30
2023-03-18T14:29:45.547Z,49.50
2023-03-18T14:32:35.019Z,49.00
2023-03-18T14:35:17.752Z,48.70
2023-03-18T14:38:27.121Z,49.20
2023-03-18T14:40:56.016Z,48.60
2023-03-18T14:43:34.909Z,48.90
2023-03-18T14:46:09.248Z,49.50
2023-03-18T14:48:37.685Z,48.90
2023-03-18T14:51:17.081Z,49.10
2023-03-18T14:53:51.084Z,50.40
2023-03-18T14:56:23.290Z,50.90
2023-03-18T15:02:12.164Z,50.60
2023-03-18T15:04:40.002Z,50.50
2023-03-18T15:07:07.399Z,51.50
2023-03-18T15:09:35.097Z,50.90
2023-03-18T15:12:19.028Z,57.40
2023-03-18T15:14:46.481Z,52.60
2023-03-18T15:17:17.225Z,52.80
2023-03-18T15:19:44.944Z,49.80
2023-03-18T15:22:20.913Z,52.00
2023-03-18T15:24:48.406Z,52.70
2023-03-18T15:27:18.605Z,49.70
2023-03-18T15:29:53.049Z,50.20
2023-03-18T15:32:20.898Z,50.80
2023-03-18T15:34:56.213Z,48.50
2023-03-18T15:37:55.349Z,49.10
2023-03-18T15:40:27.039Z,48.90
2023-03-18T15:42:56.762Z,49.30
2023-03-18T15:45:27.255Z,50.10
2023-03-18T15:47:54.715Z,50.00
2023-03-18T15:50:26.868Z,50.20
2023-03-18T15:53:27.292Z,50.70
2023-03-18T15:55:56.180Z,51.30
2023-03-18T15:58:27.295Z,52.60
2023-03-18T16:00:55.227Z,51.60
2023-03-18T16:03:27.155Z,52.00
2023-03-18T16:05:55.200Z,52.00
2023-03-18T16:08:23.569Z,52.20
2023-03-18T16:10:53.093Z,52.30
2023-03-18T16:13:44.664Z,52.30
2023-03-18T16:16:17.375Z,52.50
2023-03-18T16:18:44.846Z,53.40
2023-03-18T16:21:14.102Z,53.50
2023-03-18T16:23:42.075Z,53.40
2023-03-18T16:26:15.089Z,54.10
2023-03-18T16:28:43.956Z,54.20
2023-03-18T16:31:12.430Z,53.60
2023-03-18T16:33:40.552Z,53.90
2023-03-18T16:36:10.313Z,54.30
2023-03-18T16:38:38.595Z,54.60
2023-03-18T16:41:06.233Z,54.70
2023-03-18T16:43:33.726Z,54.70
2023-03-18T16:46:04.087Z,54.90
2023-03-18T16:48:31.946Z,55.20
2023-03-18T16:51:02.399Z,55.40
2023-03-18T16:53:30.499Z,55.40
2023-03-18T16:56:02.362Z,55.70
2023-03-18T16:58:33.611Z,56.30
2023-03-18T17:01:01.767Z,58.50
2023-03-18T17:03:29.997Z,59.40
2023-03-18T17:05:57.403Z,57.60
2023-03-18T17:08:24.896Z,57.30
2023-03-18T17:10:54.550Z,57.90
2023-03-18T17:13:24.104Z,58.50
2023-03-18T17:15:51.516Z,59.00
2023-03-18T17:18:20.669Z,57.40
2023-03-18T17:20:48.203Z,57.50
2023-03-18T17:23:17.332Z,58.00
2023-03-18T17:25:55.343Z,58.50
2023-03-18T17:28:34.580Z,59.00
2023-03-18T17:31:02.999Z,59.70
2023-03-18T17:33:32.090Z,60.00
2023-03-18T17:36:01.460Z,60.90
2023-03-18T17:38:30.689Z,61.60
2023-03-18T17:40:58.785Z,62.60
2023-03-18T17:43:30.848Z,63.60
2023-03-18T17:45:58.576Z,64.10
2023-03-18T17:48:27.462Z,65.10
2023-03-18T17:50:56.483Z,65.00
2023-03-18T17:53:28.332Z,63.60
2023-03-18T17:55:55.901Z,63.20
2023-03-18T17:58:26.042Z,63.50
2023-03-18T18:00:54.079Z,63.40
2023-03-18T18:03:28.709Z,62.70
2023-03-18T18:05:56.482Z,62.00
2023-03-18T18:08:25.426Z,62.10
2023-03-18T18:10:54.499Z,62.40
2023-03-18T18:13:22.707Z,62.70
2023-03-18T18:15:51.081Z,68.30
2023-03-18T18:18:26.613Z,66.00
2023-03-18T18:21:04.116Z,66.70
2023-03-18T18:23:35.727Z,66.70
2023-03-18T18:26:05.358Z,65.50
2023-03-18T18:28:34.360Z,64.10
2023-03-18T18:31:02.986Z,65.70
2023-03-18T18:33:31.194Z,66.50
2023-03-18T18:35:58.764Z,64.90
2023-03-18T18:38:26.077Z,59.30
2023-03-18T18:40:54.075Z,66.70
2023-03-18T18:43:21.885Z,67.20
2023-03-18T18:45:49.772Z,66.20
2023-03-18T18:48:17.833Z,61.70
2023-03-18T18:50:45.561Z,64.90
2023-03-18T18:53:22.232Z,67.30
2023-03-18T18:55:49.787Z,61.90
2023-03-18T18:58:19.340Z,66.10
2023-03-18T19:00:47.179Z,66.70
2023-03-18T19:03:16.105Z,64.40
2023-03-18T19:05:44.358Z,66.20
2023-03-18T19:08:36.672Z,63.20
2023-03-18T19:11:05.634Z,63.10
2023-03-18T19:13:34.244Z,65.30
2023-03-18T19:16:07.205Z,65.70
2023-03-18T19:18:38.526Z,64.90
2023-03-18T19:21:06.868Z,63.80
2023-03-18T19:23:34.795Z,65.20
2023-03-18T19:26:03.018Z,66.30
2023-03-18T19:29:03.879Z,67.50
2023-03-18T19:31:32.265Z,68.90
2023-03-18T19:34:00.474Z,69.20
2023-03-18T19:36:32.458Z,69.80
2023-03-18T19:39:01.190Z,71.30
2023-03-18T19:41:28.906Z,72.00
2023-03-18T19:44:04.194Z,73.40
2023-03-18T19:46:37.066Z,73.20
2023-03-18T19:49:35.209Z,73.40
2023-03-18T19:52:03.135Z,73.80
2023-03-18T19:54:36.983Z,74.70
2023-03-18T19:57:19.949Z,75.00
2023-03-18T19:59:48.543Z,75.10
2023-03-18T20:02:26.759Z,78.20
2023-03-18T20:04:58.886Z,92.20
2023-03-18T20:07:30.929Z,89.80
2023-03-18T20:09:58.338Z,84.60
2023-03-18T20:12:33.326Z,81.90
2023-03-18T20:15:00.935Z,82.80
2023-03-18T20:17:32.497Z,81.40
2023-03-18T20:19:59.869Z,81.00
2023-03-18T20:22:30.397Z,80.20
2023-03-18T20:24:57.762Z,81.10
2023-03-18T20:27:25.210Z,80.70
2023-03-18T20:29:52.576Z,80.10
2023-03-18T20:32:19.925Z,80.90
2023-03-18T20:34:48.425Z,81.00
2023-03-18T20:37:33.517Z,81.20
2023-03-18T20:40:04.696Z,90.70
2023-03-18T20:42:34.614Z,86.20
2023-03-18T20:45:02.097Z,84.90
2023-03-18T20:47:29.580Z,83.70
2023-03-18T20:49:57.186Z,87.90
2023-03-18T20:52:28.825Z,84.80
2023-03-18T20:54:59.470Z,84.80
2023-03-18T20:57:27.422Z,87.70
2023-03-18T20:59:54.777Z,88.70
2023-03-18T21:02:32.721Z,85.30
2023-03-18T21:05:01.053Z,84.90
2023-03-18T21:07:28.506Z,89.50
2023-03-18T21:09:55.882Z,90.90
2023-03-18T21:12:23.619Z,91.00
2023-03-18T21:14:51.120Z,92.60
2023-03-18T21:17:23.824Z,90.10
2023-03-18T21:19:52.006Z,89.30
2023-03-18T21:22:27.626Z,87.70
2023-03-18T21:24:55.212Z,87.00
2023-03-18T21:27:24.460Z,86.70
2023-03-18T21:29:52.360Z,90.70
2023-03-18T21:32:24.069Z,89.50
2023-03-18T21:34:52.660Z,88.70
2023-03-18T21:37:21.336Z,91.70
2023-03-18T21:39:49.163Z,90.50
2023-03-18T21:42:18.212Z,90.20
2023-03-18T21:44:45.633Z,90.10
2023-03-18T21:47:14.675Z,90.50
2023-03-18T21:49:42.810Z,90.20
2023-03-18T21:52:21.084Z,90.20
2023-03-18T21:54:48.497Z,90.30
2023-03-18T21:57:19.674Z,90.10
2023-03-18T21:59:47.143Z,90.10
2023-03-18T22:02:25.206Z,93.70
2023-03-18T22:04:53.041Z,91.70
2023-03-18T22:07:23.113Z,91.10
2023-03-18T22:09:51.275Z,93.60
2023-03-18T22:12:30.421Z,92.20
2023-03-18T22:14:57.935Z,91.40
2023-03-18T22:17:26.266Z,91.10
2023-03-18T22:19:54.180Z,91.00
2023-03-18T22:22:23.293Z,90.90
2023-03-18T22:24:51.247Z,90.90
2023-03-18T22:27:21.662Z,90.80
2023-03-18T22:29:49.624Z,90.90
2023-03-18T22:32:32.751Z,99.70
2023-03-18T22:35:00.287Z,97.60
2023-03-18T22:37:27.676Z,94.50
2023-03-18T22:39:55.079Z,94.20
2023-03-18T22:42:23.773Z,95.20
2023-03-18T22:44:51.419Z,97.30
2023-03-18T22:47:23.571Z,99.90
2023-03-18T22:49:51.219Z,99.90
2023-03-18T22:52:31.039Z,99.90
2023-03-18T22:55:00.100Z,99.90
2023-03-18T22:57:27.849Z,96.50
2023-03-18T22:59:56.276Z,94.50
2023-03-18T23:02:25.575Z,94.00
2023-03-18T23:04:54.180Z,97.00
2023-03-18T23:07:26.726Z,95.30
2023-03-18T23:09:57.470Z,95.50
2023-03-18T23:12:25.877Z,96.00
2023-03-18T23:14:53.248Z,96.50
2023-03-18T23:17:25.730Z,97.00
2023-03-18T23:19:53.549Z,97.50
2023-03-18T23:22:41.341Z,97.70
2023-03-18T23:25:12.371Z,98.10
2023-03-18T23:27:39.679Z,98.20
2023-03-18T23:30:07.579Z,98.50
2023-03-18T23:32:35.382Z,99.00
2023-03-18T23:35:02.805Z,99.20
2023-03-18T23:37:30.212Z,99.70
2023-03-18T23:39:57.510Z,99.90
2023-03-18T23:42:24.841Z,99.90
2023-03-18T23:44:52.136Z,99.90
2023-03-18T23:47:19.476Z,99.90
2023-03-18T23:49:46.782Z,99.90
2023-03-18T23:52:14.759Z,99.90
2023-03-18T23:54:42.179Z,99.90
2023-03-18T23:57:10.566Z,99.90
2023-03-18T23:59:38.029Z,99.90
